sensor_id;sensor_type;location;lat;lon;timestamp;temperature;humidity
55173;DHT22;41061;52.822;6.860;2022-07-01T00:00:50;16.00;99.90
55173;DHT22;41061;52.822;6.860;2022-07-01T00:03:16;15.90;99.90
55173;DHT22;41061;52.822;6.860;2022-07-01T00:05:42;16.00;99.90
55173;DHT22;41061;52.822;6.860;2022-07-01T00:08:08;15.90;99.90
55173;DHT22;41061;52.822;6.860;2022-07-01T00:10:34;16.00;99.90
55173;DHT22;41061;52.822;6.860;2022-07-01T00:13:04;15.90;99.90
55173;DHT22;41061;52.822;6.860;2022-07-01T00:15:32;15.90;99.90
55173;DHT22;41061;52.822;6.860;2022-07-01T00:17:57;15.90;99.90
55173;DHT22;41061;52.822;6.860;2022-07-01T00:20:23;15.80;99.90
55173;DHT22;41061;52.822;6.860;2022-07-01T00:22:49;15.90;99.90
55173;DHT22;41061;52.822;6.860;2022-07-01T00:25:14;15.90;99.90
55173;DHT22;41061;52.822;6.860;2022-07-01T00:27:40;15.80;99.90
55173;DHT22;41061;52.822;6.860;2022-07-01T00:30:07;15.90;99.90
55173;DHT22;41061;52.822;6.860;2022-07-01T00:32:33;15.90;99.90
55173;DHT22;41061;52.822;6.860;2022-07-01T00:34:58;15.90;99.90
55173;DHT22;41061;52.822;6.860;2022-07-01T00:37:24;15.80;99.90
55173;DHT22;41061;52.822;6.860;2022-07-01T00:39:50;15.90;99.90
55173;DHT22;41061;52.822;6.860;2022-07-01T00:42:15;15.90;99.90
55173;DHT22;41061;52.822;6.860;2022-07-01T00:44:41;15.90;99.90
55173;DHT22;41061;52.822;6.860;2022-07-01T00:47:13;15.90;99.90
55173;DHT22;41061;52.822;6.860;2022-07-01T00:49:39;16.00;99.90
55173;DHT22;41061;52.822;6.860;2022-07-01T00:52:05;15.90;99.90
55173;DHT22;41061;52.822;6.860;2022-07-01T00:54:35;15.90;99.90
55173;DHT22;41061;52.822;6.860;2022-07-01T00:57:09;15.80;99.90
55173;DHT22;41061;52.822;6.860;2022-07-01T00:59:35;15.90;99.90
55173;DHT22;41061;52.822;6.860;2022-07-01T01:02:01;15.90;99.90
55173;DHT22;41061;52.822;6.860;2022-07-01T01:04:27;15.90;99.90
55173;DHT22;41061;52.822;6.860;2022-07-01T01:06:53;15.80;99.90
55173;DHT22;41061;52.822;6.860;2022-07-01T01:09:18;15.80;99.90
55173;DHT22;41061;52.822;6.860;2022-07-01T01:11:44;15.90;99.90
55173;DHT22;41061;52.822;6.860;2022-07-01T01:14:10;15.90;99.90
55173;DHT22;41061;52.822;6.860;2022-07-01T01:16:36;15.90;99.90
55173;DHT22;41061;52.822;6.860;2022-07-01T01:19:07;15.90;99.90
55173;DHT22;41061;52.822;6.860;2022-07-01T01:21:36;15.90;99.90
55173;DHT22;41061;52.822;6.860;2022-07-01T01:24:01;15.90;99.90
55173;DHT22;41061;52.822;6.860;2022-07-01T01:26:28;15.90;99.90
55173;DHT22;41061;52.822;6.860;2022-07-01T01:28:53;15.90;99.90
55173;DHT22;41061;52.822;6.860;2022-07-01T01:31:28;16.00;99.90
55173;DHT22;41061;52.822;6.860;2022-07-01T01:33:58;16.00;99.90
55173;DHT22;41061;52.822;6.860;2022-07-01T01:36:25;16.00;99.90
55173;DHT22;41061;52.822;6.860;2022-07-01T01:38:51;16.00;99.90
55173;DHT22;41061;52.822;6.860;2022-07-01T01:41:17;16.00;99.90
55173;DHT22;41061;52.822;6.860;2022-07-01T01:43:42;15.90;99.90
55173;DHT22;41061;52.822;6.860;2022-07-01T01:46:08;15.90;99.90
55173;DHT22;41061;52.822;6.860;2022-07-01T01:48:33;15.90;99.90
55173;DHT22;41061;52.822;6.860;2022-07-01T01:50:59;15.90;99.90
55173;DHT22;41061;52.822;6.860;2022-07-01T01:53:25;15.90;99.90
55173;DHT22;41061;52.822;6.860;2022-07-01T01:55:51;15.90;99.90
55173;DHT22;41061;52.822;6.860;2022-07-01T01:58:16;15.90;99.90
55173;DHT22;41061;52.822;6.860;2022-07-01T02:00:42;16.00;99.90
55173;DHT22;41061;52.822;6.860;2022-07-01T02:03:07;15.90;99.90
55173;DHT22;41061;52.822;6.860;2022-07-01T02:05:33;15.90;99.90
55173;DHT22;41061;52.822;6.860;2022-07-01T02:08:02;15.90;99.90
55173;DHT22;41061;52.822;6.860;2022-07-01T02:10:28;15.90;99.90
55173;DHT22;41061;52.822;6.860;2022-07-01T02:12:54;15.90;99.90
55173;DHT22;41061;52.822;6.860;2022-07-01T02:15:19;15.90;99.90
55173;DHT22;41061;52.822;6.860;2022-07-01T02:17:45;15.90;99.90
55173;DHT22;41061;52.822;6.860;2022-07-01T02:20:11;15.90;99.90
55173;DHT22;41061;52.822;6.860;2022-07-01T02:22:41;15.90;99.90
55173;DHT22;41061;52.822;6.860;2022-07-01T02:25:08;15.80;99.90
55173;DHT22;41061;52.822;6.860;2022-07-01T02:27:33;15.80;99.90
55173;DHT22;41061;52.822;6.860;2022-07-01T02:29:59;15.80;99.90
55173;DHT22;41061;52.822;6.860;2022-07-01T02:32:25;15.80;99.90
55173;DHT22;41061;52.822;6.860;2022-07-01T02:34:51;15.80;99.90
55173;DHT22;41061;52.822;6.860;2022-07-01T02:37:17;15.70;99.90
55173;DHT22;41061;52.822;6.860;2022-07-01T02:39:42;15.70;99.90
55173;DHT22;41061;52.822;6.860;2022-07-01T02:42:08;15.70;99.90
55173;DHT22;41061;52.822;6.860;2022-07-01T02:44:49;15.70;99.90
55173;DHT22;41061;52.822;6.860;2022-07-01T02:47:14;15.70;99.90
55173;DHT22;41061;52.822;6.860;2022-07-01T02:49:40;15.70;99.90
55173;DHT22;41061;52.822;6.860;2022-07-01T02:52:06;15.70;99.90
55173;DHT22;41061;52.822;6.860;2022-07-01T02:54:32;15.70;99.90
55173;DHT22;41061;52.822;6.860;2022-07-01T02:56:58;15.70;99.90
55173;DHT22;41061;52.822;6.860;2022-07-01T02:59:23;15.70;99.90
55173;DHT22;41061;52.822;6.860;2022-07-01T03:01:49;15.70;99.90
55173;DHT22;41061;52.822;6.860;2022-07-01T03:04:14;15.80;99.90
55173;DHT22;41061;52.822;6.860;2022-07-01T03:06:40;15.70;99.90
55173;DHT22;41061;52.822;6.860;2022-07-01T03:09:06;15.70;99.90
55173;DHT22;41061;52.822;6.860;2022-07-01T03:11:32;15.70;99.90
55173;DHT22;41061;52.822;6.860;2022-07-01T03:13:58;15.70;99.90
55173;DHT22;41061;52.822;6.860;2022-07-01T03:16:23;15.60;99.90
55173;DHT22;41061;52.822;6.860;2022-07-01T03:18:50;15.70;99.90
55173;DHT22;41061;52.822;6.860;2022-07-01T03:21:15;15.70;99.90
55173;DHT22;41061;52.822;6.860;2022-07-01T03:23:41;15.60;99.90
55173;DHT22;41061;52.822;6.860;2022-07-01T03:26:07;15.60;99.90
55173;DHT22;41061;52.822;6.860;2022-07-01T03:28:33;15.60;99.90
55173;DHT22;41061;52.822;6.860;2022-07-01T03:31:00;15.50;99.90
55173;DHT22;41061;52.822;6.860;2022-07-01T03:33:26;15.50;99.90
55173;DHT22;41061;52.822;6.860;2022-07-01T03:35:52;15.50;99.90
55173;DHT22;41061;52.822;6.860;2022-07-01T03:38:18;15.40;99.90
55173;DHT22;41061;52.822;6.860;2022-07-01T03:40:43;15.40;99.90
55173;DHT22;41061;52.822;6.860;2022-07-01T03:43:09;15.40;99.90
55173;DHT22;41061;52.822;6.860;2022-07-01T03:45:35;15.40;99.90
55173;DHT22;41061;52.822;6.860;2022-07-01T03:48:01;15.40;99.90
55173;DHT22;41061;52.822;6.860;2022-07-01T03:50:28;15.30;99.90
55173;DHT22;41061;52.822;6.860;2022-07-01T03:52:54;15.30;99.90
55173;DHT22;41061;52.822;6.860;2022-07-01T03:55:38;15.30;99.90
55173;DHT22;41061;52.822;6.860;2022-07-01T03:58:04;15.20;99.90
55173;DHT22;41061;52.822;6.860;2022-07-01T04:00:33;15.20;99.90
55173;DHT22;41061;52.822;6.860;2022-07-01T04:02:59;15.30;99.90
55173;DHT22;41061;52.822;6.860;2022-07-01T04:05:24;15.20;99.90
55173;DHT22;41061;52.822;6.860;2022-07-01T04:07:50;15.30;99.90
55173;DHT22;41061;52.822;6.860;2022-07-01T04:10:16;15.30;99.90
55173;DHT22;41061;52.822;6.860;2022-07-01T04:12:42;15.30;99.90
55173;DHT22;41061;52.822;6.860;2022-07-01T04:15:08;15.40;99.90
55173;DHT22;41061;52.822;6.860;2022-07-01T04:17:34;15.40;99.90
55173;DHT22;41061;52.822;6.860;2022-07-01T04:19:59;15.40;99.90
55173;DHT22;41061;52.822;6.860;2022-07-01T04:22:25;15.40;99.90
55173;DHT22;41061;52.822;6.860;2022-07-01T04:25:02;15.50;99.90
55173;DHT22;41061;52.822;6.860;2022-07-01T04:27:30;15.40;99.90
55173;DHT22;41061;52.822;6.860;2022-07-01T04:29:55;15.50;99.90
55173;DHT22;41061;52.822;6.860;2022-07-01T04:32:22;15.50;99.90
55173;DHT22;41061;52.822;6.860;2022-07-01T04:34:48;15.50;99.90
55173;DHT22;41061;52.822;6.860;2022-07-01T04:37:14;15.40;99.90
55173;DHT22;41061;52.822;6.860;2022-07-01T04:39:40;15.50;99.90
55173;DHT22;41061;52.822;6.860;2022-07-01T04:42:05;15.30;99.90
55173;DHT22;41061;52.822;6.860;2022-07-01T04:44:36;15.30;99.90
55173;DHT22;41061;52.822;6.860;2022-07-01T04:47:03;15.30;99.90
55173;DHT22;41061;52.822;6.860;2022-07-01T04:49:29;15.30;99.90
55173;DHT22;41061;52.822;6.860;2022-07-01T04:51:56;15.30;99.90
55173;DHT22;41061;52.822;6.860;2022-07-01T04:54:22;15.20;99.90
55173;DHT22;41061;52.822;6.860;2022-07-01T04:56:48;15.30;99.90
55173;DHT22;41061;52.822;6.860;2022-07-01T04:59:14;15.30;99.90
55173;DHT22;41061;52.822;6.860;2022-07-01T05:01:41;15.30;99.90
55173;DHT22;41061;52.822;6.860;2022-07-01T05:04:07;15.30;99.90
55173;DHT22;41061;52.822;6.860;2022-07-01T05:06:33;15.20;99.90
55173;DHT22;41061;52.822;6.860;2022-07-01T05:08:59;15.20;99.90
55173;DHT22;41061;52.822;6.860;2022-07-01T05:11:25;15.20;99.90
55173;DHT22;41061;52.822;6.860;2022-07-01T05:13:51;15.20;99.90
55173;DHT22;41061;52.822;6.860;2022-07-01T05:16:16;15.20;99.90
55173;DHT22;41061;52.822;6.860;2022-07-01T05:18:42;15.20;99.90
55173;DHT22;41061;52.822;6.860;2022-07-01T05:21:26;15.20;99.90
55173;DHT22;41061;52.822;6.860;2022-07-01T05:24:10;15.20;99.90
55173;DHT22;41061;52.822;6.860;2022-07-01T05:26:36;15.20;99.90
55173;DHT22;41061;52.822;6.860;2022-07-01T05:29:02;15.20;99.90
55173;DHT22;41061;52.822;6.860;2022-07-01T05:31:28;15.20;99.90
55173;DHT22;41061;52.822;6.860;2022-07-01T05:33:53;15.30;99.90
55173;DHT22;41061;52.822;6.860;2022-07-01T05:36:20;15.20;99.90
55173;DHT22;41061;52.822;6.860;2022-07-01T05:38:45;15.30;99.90
55173;DHT22;41061;52.822;6.860;2022-07-01T05:41:12;15.40;99.90
55173;DHT22;41061;52.822;6.860;2022-07-01T05:43:38;15.40;99.90
55173;DHT22;41061;52.822;6.860;2022-07-01T05:46:04;15.40;99.90
55173;DHT22;41061;52.822;6.860;2022-07-01T05:48:29;15.50;99.90
55173;DHT22;41061;52.822;6.860;2022-07-01T05:50:55;15.50;99.90
55173;DHT22;41061;52.822;6.860;2022-07-01T05:53:21;15.60;99.90
55173;DHT22;41061;52.822;6.860;2022-07-01T05:55:47;15.70;99.90
55173;DHT22;41061;52.822;6.860;2022-07-01T05:58:14;15.80;99.90
55173;DHT22;41061;52.822;6.860;2022-07-01T06:00:40;15.80;99.90
55173;DHT22;41061;52.822;6.860;2022-07-01T06:03:07;15.80;99.90
55173;DHT22;41061;52.822;6.860;2022-07-01T06:05:33;15.80;99.90
55173;DHT22;41061;52.822;6.860;2022-07-01T06:07:59;15.90;99.90
55173;DHT22;41061;52.822;6.860;2022-07-01T06:10:25;15.90;99.90
55173;DHT22;41061;52.822;6.860;2022-07-01T06:12:50;15.90;99.90
55173;DHT22;41061;52.822;6.860;2022-07-01T06:15:16;16.00;99.90
55173;DHT22;41061;52.822;6.860;2022-07-01T06:17:42;16.00;99.90
55173;DHT22;41061;52.822;6.860;2022-07-01T06:20:08;16.00;99.90
55173;DHT22;41061;52.822;6.860;2022-07-01T06:22:34;16.00;99.90
55173;DHT22;41061;52.822;6.860;2022-07-01T06:25:00;16.00;99.90
55173;DHT22;41061;52.822;6.860;2022-07-01T06:27:27;16.10;99.90
55173;DHT22;41061;52.822;6.860;2022-07-01T06:29:53;16.10;99.90
55173;DHT22;41061;52.822;6.860;2022-07-01T06:32:18;16.10;99.90
55173;DHT22;41061;52.822;6.860;2022-07-01T06:34:44;16.10;99.90
55173;DHT22;41061;52.822;6.860;2022-07-01T06:37:11;16.10;99.90
55173;DHT22;41061;52.822;6.860;2022-07-01T06:39:37;16.10;99.90
55173;DHT22;41061;52.822;6.860;2022-07-01T06:42:02;16.10;99.90
55173;DHT22;41061;52.822;6.860;2022-07-01T06:44:28;16.20;99.90
55173;DHT22;41061;52.822;6.860;2022-07-01T06:46:54;16.20;99.90
55173;DHT22;41061;52.822;6.860;2022-07-01T06:49:19;16.30;99.90
55173;DHT22;41061;52.822;6.860;2022-07-01T06:51:45;16.40;99.90
55173;DHT22;41061;52.822;6.860;2022-07-01T06:54:11;16.40;99.90
55173;DHT22;41061;52.822;6.860;2022-07-01T06:56:37;16.40;99.90
55173;DHT22;41061;52.822;6.860;2022-07-01T06:59:03;16.50;99.90
55173;DHT22;41061;52.822;6.860;2022-07-01T07:01:28;16.40;99.90
55173;DHT22;41061;52.822;6.860;2022-07-01T07:03:54;16.40;99.90
55173;DHT22;41061;52.822;6.860;2022-07-01T07:06:21;16.40;99.90
55173;DHT22;41061;52.822;6.860;2022-07-01T07:08:46;16.40;99.90
55173;DHT22;41061;52.822;6.860;2022-07-01T07:11:12;16.30;99.90
55173;DHT22;41061;52.822;6.860;2022-07-01T07:13:41;16.30;99.90
55173;DHT22;41061;52.822;6.860;2022-07-01T07:16:09;16.30;99.90
55173;DHT22;41061;52.822;6.860;2022-07-01T07:18:35;16.40;99.90
55173;DHT22;41061;52.822;6.860;2022-07-01T07:21:01;16.40;99.90
55173;DHT22;41061;52.822;6.860;2022-07-01T07:23:28;16.30;99.90
55173;DHT22;41061;52.822;6.860;2022-07-01T07:25:54;16.50;99.90
55173;DHT22;41061;52.822;6.860;2022-07-01T07:28:20;16.40;99.90
55173;DHT22;41061;52.822;6.860;2022-07-01T07:30:46;16.40;99.90
55173;DHT22;41061;52.822;6.860;2022-07-01T07:33:11;16.40;99.90
55173;DHT22;41061;52.822;6.860;2022-07-01T07:35:37;16.40;99.90
55173;DHT22;41061;52.822;6.860;2022-07-01T07:38:03;16.40;99.90
55173;DHT22;41061;52.822;6.860;2022-07-01T07:40:28;16.50;99.90
55173;DHT22;41061;52.822;6.860;2022-07-01T07:42:54;16.50;99.90
55173;DHT22;41061;52.822;6.860;2022-07-01T07:45:19;16.50;99.90
55173;DHT22;41061;52.822;6.860;2022-07-01T07:47:47;16.50;99.90
55173;DHT22;41061;52.822;6.860;2022-07-01T07:50:14;16.60;99.90
55173;DHT22;41061;52.822;6.860;2022-07-01T07:52:41;16.70;99.90
55173;DHT22;41061;52.822;6.860;2022-07-01T07:55:08;16.80;99.90
55173;DHT22;41061;52.822;6.860;2022-07-01T07:57:36;16.80;99.90
55173;DHT22;41061;52.822;6.860;2022-07-01T08:00:03;17.00;99.90
55173;DHT22;41061;52.822;6.860;2022-07-01T08:02:29;17.00;99.90
55173;DHT22;41061;52.822;6.860;2022-07-01T08:04:55;17.10;99.90
55173;DHT22;41061;52.822;6.860;2022-07-01T08:07:21;17.20;99.90
55173;DHT22;41061;52.822;6.860;2022-07-01T08:09:46;17.30;99.90
55173;DHT22;41061;52.822;6.860;2022-07-01T08:12:15;17.30;99.90
55173;DHT22;41061;52.822;6.860;2022-07-01T08:14:42;17.40;99.90
55173;DHT22;41061;52.822;6.860;2022-07-01T08:17:07;17.50;99.90
55173;DHT22;41061;52.822;6.860;2022-07-01T08:19:33;17.50;99.90
55173;DHT22;41061;52.822;6.860;2022-07-01T08:21:58;17.40;99.90
55173;DHT22;41061;52.822;6.860;2022-07-01T08:24:24;17.40;99.90
55173;DHT22;41061;52.822;6.860;2022-07-01T08:26:50;17.50;99.90
55173;DHT22;41061;52.822;6.860;2022-07-01T08:29:16;17.60;99.90
55173;DHT22;41061;52.822;6.860;2022-07-01T08:31:41;17.60;99.90
55173;DHT22;41061;52.822;6.860;2022-07-01T08:34:07;17.80;99.90
55173;DHT22;41061;52.822;6.860;2022-07-01T08:36:33;17.90;99.90
55173;DHT22;41061;52.822;6.860;2022-07-01T08:38:59;18.00;99.90
55173;DHT22;41061;52.822;6.860;2022-07-01T08:41:24;18.10;99.90
55173;DHT22;41061;52.822;6.860;2022-07-01T08:43:50;18.20;99.90
55173;DHT22;41061;52.822;6.860;2022-07-01T08:46:16;18.50;99.90
55173;DHT22;41061;52.822;6.860;2022-07-01T08:48:42;18.60;99.90
55173;DHT22;41061;52.822;6.860;2022-07-01T08:51:08;18.90;99.90
55173;DHT22;41061;52.822;6.860;2022-07-01T08:53:34;19.00;99.90
55173;DHT22;41061;52.822;6.860;2022-07-01T08:56:00;19.10;99.90
55173;DHT22;41061;52.822;6.860;2022-07-01T08:58:44;19.20;99.90
55173;DHT22;41061;52.822;6.860;2022-07-01T09:01:22;19.30;99.90
55173;DHT22;41061;52.822;6.860;2022-07-01T09:03:50;19.30;99.90
55173;DHT22;41061;52.822;6.860;2022-07-01T09:06:29;19.30;99.90
55173;DHT22;41061;52.822;6.860;2022-07-01T09:08:55;19.30;99.90
55173;DHT22;41061;52.822;6.860;2022-07-01T09:11:35;19.30;99.90
55173;DHT22;41061;52.822;6.860;2022-07-01T09:14:09;19.30;99.90
55173;DHT22;41061;52.822;6.860;2022-07-01T09:16:45;19.50;99.90
55173;DHT22;41061;52.822;6.860;2022-07-01T09:19:13;19.60;99.90
55173;DHT22;41061;52.822;6.860;2022-07-01T09:21:40;19.80;99.90
55173;DHT22;41061;52.822;6.860;2022-07-01T09:24:32;19.80;99.90
55173;DHT22;41061;52.822;6.860;2022-07-01T09:27:03;19.70;99.90
55173;DHT22;41061;52.822;6.860;2022-07-01T09:29:34;19.50;99.90
55173;DHT22;41061;52.822;6.860;2022-07-01T09:32:04;19.40;99.90
55173;DHT22;41061;52.822;6.860;2022-07-01T09:37:10;19.40;99.90
55173;DHT22;41061;52.822;6.860;2022-07-01T09:42:17;19.40;99.90
55173;DHT22;41061;52.822;6.860;2022-07-01T09:45:00;19.30;99.90
55173;DHT22;41061;52.822;6.860;2022-07-01T09:47:28;19.30;99.90
55173;DHT22;41061;52.822;6.860;2022-07-01T09:49:56;19.40;99.90
55173;DHT22;41061;52.822;6.860;2022-07-01T09:52:22;19.30;99.90
55173;DHT22;41061;52.822;6.860;2022-07-01T09:54:50;19.30;99.90
55173;DHT22;41061;52.822;6.860;2022-07-01T09:57:16;19.30;99.90
55173;DHT22;41061;52.822;6.860;2022-07-01T09:59:42;19.20;99.90
55173;DHT22;41061;52.822;6.860;2022-07-01T10:02:09;19.20;99.90
55173;DHT22;41061;52.822;6.860;2022-07-01T10:04:47;19.10;99.90
55173;DHT22;41061;52.822;6.860;2022-07-01T10:13:01;19.40;99.90
55173;DHT22;41061;52.822;6.860;2022-07-01T10:15:28;19.70;99.90
55173;DHT22;41061;52.822;6.860;2022-07-01T10:17:53;20.00;99.90
55173;DHT22;41061;52.822;6.860;2022-07-01T10:20:24;20.20;99.90
55173;DHT22;41061;52.822;6.860;2022-07-01T10:22:50;20.50;99.90
55173;DHT22;41061;52.822;6.860;2022-07-01T10:25:30;20.70;99.90
55173;DHT22;41061;52.822;6.860;2022-07-01T10:33:44;20.40;99.90
55173;DHT22;41061;52.822;6.860;2022-07-01T10:44:13;21.70;99.90
55173;DHT22;41061;52.822;6.860;2022-07-01T10:49:10;21.90;99.90
55173;DHT22;41061;52.822;6.860;2022-07-01T10:51:54;21.60;99.90
55173;DHT22;41061;52.822;6.860;2022-07-01T10:59:52;21.20;99.90
55173;DHT22;41061;52.822;6.860;2022-07-01T11:02:23;21.20;99.90
55173;DHT22;41061;52.822;6.860;2022-07-01T11:04:50;21.40;99.90
55173;DHT22;41061;52.822;6.860;2022-07-01T11:07:16;21.50;99.90
55173;DHT22;41061;52.822;6.860;2022-07-01T11:09:42;21.60;99.90
55173;DHT22;41061;52.822;6.860;2022-07-01T11:12:08;21.80;99.90
55173;DHT22;41061;52.822;6.860;2022-07-01T11:14:38;22.00;99.90
55173;DHT22;41061;52.822;6.860;2022-07-01T11:17:05;22.10;99.90
55173;DHT22;41061;52.822;6.860;2022-07-01T11:19:31;22.20;99.90
55173;DHT22;41061;52.822;6.860;2022-07-01T11:21:57;22.10;99.90
55173;DHT22;41061;52.822;6.860;2022-07-01T11:24:23;21.90;99.90
55173;DHT22;41061;52.822;6.860;2022-07-01T11:26:49;21.80;99.90
55173;DHT22;41061;52.822;6.860;2022-07-01T11:29:27;21.80;99.90
55173;DHT22;41061;52.822;6.860;2022-07-01T11:31:53;22.00;99.90
55173;DHT22;41061;52.822;6.860;2022-07-01T11:34:19;22.10;99.90
55173;DHT22;41061;52.822;6.860;2022-07-01T11:36:46;22.10;99.90
55173;DHT22;41061;52.822;6.860;2022-07-01T11:39:32;22.30;99.90
55173;DHT22;41061;52.822;6.860;2022-07-01T11:42:01;22.30;99.90
55173;DHT22;41061;52.822;6.860;2022-07-01T11:44:50;22.50;99.90
55173;DHT22;41061;52.822;6.860;2022-07-01T11:47:25;22.80;99.90
55173;DHT22;41061;52.822;6.860;2022-07-01T11:49:51;22.90;99.90
55173;DHT22;41061;52.822;6.860;2022-07-01T11:52:18;22.90;99.90
55173;DHT22;41061;52.822;6.860;2022-07-01T11:54:47;23.20;99.90
55173;DHT22;41061;52.822;6.860;2022-07-01T11:57:18;23.60;99.90
55173;DHT22;41061;52.822;6.860;2022-07-01T11:59:45;23.70;99.90
55173;DHT22;41061;52.822;6.860;2022-07-01T12:02:14;23.30;99.90
55173;DHT22;41061;52.822;6.860;2022-07-01T12:04:41;22.90;99.90
55173;DHT22;41061;52.822;6.860;2022-07-01T12:07:07;22.50;99.90
55173;DHT22;41061;52.822;6.860;2022-07-01T12:09:33;22.30;99.90
55173;DHT22;41061;52.822;6.860;2022-07-01T12:12:00;22.20;99.90
55173;DHT22;41061;52.822;6.860;2022-07-01T12:14:50;22.30;99.90
55173;DHT22;41061;52.822;6.860;2022-07-01T12:17:17;22.50;99.90
55173;DHT22;41061;52.822;6.860;2022-07-01T12:19:44;22.70;99.90
55173;DHT22;41061;52.822;6.860;2022-07-01T12:24:38;22.30;99.90
55173;DHT22;41061;52.822;6.860;2022-07-01T12:27:06;21.90;99.90
55173;DHT22;41061;52.822;6.860;2022-07-01T12:32:24;21.50;99.90
55173;DHT22;41061;52.822;6.860;2022-07-01T12:34:53;21.20;99.90
55173;DHT22;41061;52.822;6.860;2022-07-01T12:39:55;20.90;99.90
55173;DHT22;41061;52.822;6.860;2022-07-01T12:42:32;21.10;99.90
55173;DHT22;41061;52.822;6.860;2022-07-01T12:45:09;21.20;99.90
55173;DHT22;41061;52.822;6.860;2022-07-01T12:53:02;22.30;99.90
55173;DHT22;41061;52.822;6.860;2022-07-01T12:55:40;22.70;99.90
55173;DHT22;41061;52.822;6.860;2022-07-01T12:58:11;22.90;99.90
55173;DHT22;41061;52.822;6.860;2022-07-01T13:00:39;23.00;99.90
55173;DHT22;41061;52.822;6.860;2022-07-01T13:03:05;23.20;99.90
55173;DHT22;41061;52.822;6.860;2022-07-01T13:05:32;23.30;99.90
55173;DHT22;41061;52.822;6.860;2022-07-01T13:07:58;23.20;99.90
55173;DHT22;41061;52.822;6.860;2022-07-01T13:10:24;22.90;99.90
55173;DHT22;41061;52.822;6.860;2022-07-01T13:12:51;22.40;99.90
55173;DHT22;41061;52.822;6.860;2022-07-01T13:15:18;22.20;99.90
55173;DHT22;41061;52.822;6.860;2022-07-01T13:17:44;22.30;99.90
55173;DHT22;41061;52.822;6.860;2022-07-01T13:20:12;22.20;99.90
55173;DHT22;41061;52.822;6.860;2022-07-01T13:22:38;22.20;99.90
55173;DHT22;41061;52.822;6.860;2022-07-01T13:25:05;22.20;99.90
55173;DHT22;41061;52.822;6.860;2022-07-01T13:27:30;22.40;99.90
55173;DHT22;41061;52.822;6.860;2022-07-01T13:29:56;22.50;99.90
55173;DHT22;41061;52.822;6.860;2022-07-01T13:32:23;22.50;99.90
55173;DHT22;41061;52.822;6.860;2022-07-01T13:34:49;22.40;99.90
55173;DHT22;41061;52.822;6.860;2022-07-01T13:37:15;22.20;99.90
55173;DHT22;41061;52.822;6.860;2022-07-01T13:39:40;22.00;99.90
55173;DHT22;41061;52.822;6.860;2022-07-01T13:42:06;21.80;99.90
55173;DHT22;41061;52.822;6.860;2022-07-01T13:44:32;21.70;99.90
55173;DHT22;41061;52.822;6.860;2022-07-01T13:46:59;21.80;99.90
55173;DHT22;41061;52.822;6.860;2022-07-01T13:49:25;22.10;99.90
55173;DHT22;41061;52.822;6.860;2022-07-01T13:51:51;22.40;99.90
55173;DHT22;41061;52.822;6.860;2022-07-01T13:54:16;22.70;99.90
55173;DHT22;41061;52.822;6.860;2022-07-01T13:56:42;22.80;99.90
55173;DHT22;41061;52.822;6.860;2022-07-01T13:59:08;22.80;99.90
55173;DHT22;41061;52.822;6.860;2022-07-01T14:01:34;22.70;99.90
55173;DHT22;41061;52.822;6.860;2022-07-01T14:04:00;22.70;99.90
55173;DHT22;41061;52.822;6.860;2022-07-01T14:06:26;22.70;99.90
55173;DHT22;41061;52.822;6.860;2022-07-01T14:08:51;22.70;99.90
55173;DHT22;41061;52.822;6.860;2022-07-01T14:11:17;22.90;99.90
55173;DHT22;41061;52.822;6.860;2022-07-01T14:13:42;23.30;99.90
55173;DHT22;41061;52.822;6.860;2022-07-01T14:16:08;23.30;99.90
55173;DHT22;41061;52.822;6.860;2022-07-01T14:18:35;23.20;99.90
55173;DHT22;41061;52.822;6.860;2022-07-01T14:21:02;22.90;99.90
55173;DHT22;41061;52.822;6.860;2022-07-01T14:23:28;22.60;99.90
55173;DHT22;41061;52.822;6.860;2022-07-01T14:25:54;22.40;99.90
55173;DHT22;41061;52.822;6.860;2022-07-01T14:28:20;22.10;99.90
55173;DHT22;41061;52.822;6.860;2022-07-01T14:30:46;21.80;99.90
55173;DHT22;41061;52.822;6.860;2022-07-01T14:33:12;21.60;99.90
55173;DHT22;41061;52.822;6.860;2022-07-01T14:35:38;21.50;99.90
55173;DHT22;41061;52.822;6.860;2022-07-01T14:38:04;21.40;99.90
55173;DHT22;41061;52.822;6.860;2022-07-01T14:40:33;21.40;99.90
55173;DHT22;41061;52.822;6.860;2022-07-01T14:42:59;21.20;99.90
55173;DHT22;41061;52.822;6.860;2022-07-01T14:45:25;21.20;99.90
55173;DHT22;41061;52.822;6.860;2022-07-01T14:47:50;21.10;99.90
55173;DHT22;41061;52.822;6.860;2022-07-01T14:50:16;21.00;99.90
55173;DHT22;41061;52.822;6.860;2022-07-01T14:52:42;21.00;99.90
55173;DHT22;41061;52.822;6.860;2022-07-01T14:55:08;20.90;99.90
55173;DHT22;41061;52.822;6.860;2022-07-01T14:57:35;20.90;99.90
55173;DHT22;41061;52.822;6.860;2022-07-01T15:00:01;20.90;99.90
55173;DHT22;41061;52.822;6.860;2022-07-01T15:02:28;20.80;99.90
55173;DHT22;41061;52.822;6.860;2022-07-01T15:04:54;20.80;99.90
55173;DHT22;41061;52.822;6.860;2022-07-01T15:07:19;20.80;99.90
55173;DHT22;41061;52.822;6.860;2022-07-01T15:09:45;20.80;99.90
55173;DHT22;41061;52.822;6.860;2022-07-01T15:12:12;20.90;99.90
55173;DHT22;41061;52.822;6.860;2022-07-01T15:14:38;21.10;99.90
55173;DHT22;41061;52.822;6.860;2022-07-01T15:17:03;21.30;99.90
55173;DHT22;41061;52.822;6.860;2022-07-01T15:19:29;21.40;99.90
55173;DHT22;41061;52.822;6.860;2022-07-01T15:21:56;21.40;99.90
55173;DHT22;41061;52.822;6.860;2022-07-01T15:24:22;21.40;99.90
55173;DHT22;41061;52.822;6.860;2022-07-01T15:26:49;21.50;99.90
55173;DHT22;41061;52.822;6.860;2022-07-01T15:29:15;21.50;99.90
55173;DHT22;41061;52.822;6.860;2022-07-01T15:31:40;21.50;99.90
55173;DHT22;41061;52.822;6.860;2022-07-01T15:34:07;21.50;99.90
55173;DHT22;41061;52.822;6.860;2022-07-01T15:36:32;21.40;99.90
55173;DHT22;41061;52.822;6.860;2022-07-01T15:38:58;21.40;99.90
55173;DHT22;41061;52.822;6.860;2022-07-01T15:41:27;21.30;99.90
55173;DHT22;41061;52.822;6.860;2022-07-01T15:43:54;21.30;99.90
55173;DHT22;41061;52.822;6.860;2022-07-01T15:46:19;21.20;99.90
55173;DHT22;41061;52.822;6.860;2022-07-01T15:48:45;21.20;99.90
55173;DHT22;41061;52.822;6.860;2022-07-01T15:51:11;21.30;99.90
55173;DHT22;41061;52.822;6.860;2022-07-01T15:53:37;21.70;99.90
55173;DHT22;41061;52.822;6.860;2022-07-01T15:56:03;22.00;99.90
55173;DHT22;41061;52.822;6.860;2022-07-01T15:58:29;22.20;99.90
55173;DHT22;41061;52.822;6.860;2022-07-01T16:00:57;22.30;99.90
55173;DHT22;41061;52.822;6.860;2022-07-01T16:03:23;22.00;99.90
55173;DHT22;41061;52.822;6.860;2022-07-01T16:05:51;21.70;99.90
55173;DHT22;41061;52.822;6.860;2022-07-01T16:10:59;21.20;99.90
55173;DHT22;41061;52.822;6.860;2022-07-01T16:13:27;21.10;99.90
55173;DHT22;41061;52.822;6.860;2022-07-01T16:15:54;21.10;99.90
55173;DHT22;41061;52.822;6.860;2022-07-01T16:18:24;21.20;99.90